Arcadia, Missouri
Current Conditions -  °F | °C
As of 7:35 PM on Friday 24 Oct 2014 (Local Time) from KFAM Reporting Station
Clear Clear  
Wind Chill: 63°   Ceiling: Unl
Heat Index: 63°   Visibility: 10mi
Dew Point: 50°   Wind: 5mph
Humidity: 63%   Direction: 160°SSE
Pressure: 30.06"   Gusts: NA
Location:  37.59°N, 90.63°W
Report Text: KFAM 250035Z AUTO 16004KT 10SM CLR 17/10 A3006 RMK AO1
Loading
Personal Weather Stations






























Interactive Weather Map New forecast layout! Learn more

10-Day Weather Forecast

Advertisements
Track Severe Weather on mobile